sensor_id;sensor_type;location;lat;lon;timestamp;pressure;altitude;pressure_sealevel;temperature;humidity
72157;BME280;60035;52.122;5.406;2023-02-19T00:01:31;101920.25;;;9.52;100.00
72157;BME280;60035;52.122;5.406;2023-02-19T00:04:00;101917.69;;;9.50;100.00
72157;BME280;60035;52.122;5.406;2023-02-19T00:06:29;101921.94;;;9.49;100.00
72157;BME280;60035;52.122;5.406;2023-02-19T00:08:56;101918.56;;;9.47;100.00
72157;BME280;60035;52.122;5.406;2023-02-19T00:11:25;101926.25;;;9.47;100.00
72157;BME280;60035;52.122;5.406;2023-02-19T00:13:53;101927.06;;;9.48;100.00
72157;BME280;60035;52.122;5.406;2023-02-19T00:16:25;101926.25;;;9.44;100.00
72157;BME280;60035;52.122;5.406;2023-02-19T00:18:54;101927.97;;;9.44;100.00
72157;BME280;60035;52.122;5.406;2023-02-19T00:21:21;101930.53;;;9.42;100.00
72157;BME280;60035;52.122;5.406;2023-02-19T00:23:52;101929.66;;;9.42;100.00
72157;BME280;60035;52.122;5.406;2023-02-19T00:26:20;101933.09;;;9.41;100.00
72157;BME280;60035;52.122;5.406;2023-02-19T00:28:47;101933.09;;;9.39;100.00
72157;BME280;60035;52.122;5.406;2023-02-19T00:33:40;101939.91;;;9.40;100.00
72157;BME280;60035;52.122;5.406;2023-02-19T00:36:07;101940.75;;;9.39;100.00
72157;BME280;60035;52.122;5.406;2023-02-19T00:38:38;101943.34;;;9.41;100.00
72157;BME280;60035;52.122;5.406;2023-02-19T00:41:06;101928.84;;;9.40;100.00
72157;BME280;60035;52.122;5.406;2023-02-19T00:46:16;101935.66;;;9.39;100.00
72157;BME280;60035;52.122;5.406;2023-02-19T00:48:43;101934.81;;;9.37;100.00
72157;BME280;60035;52.122;5.406;2023-02-19T00:51:10;101938.22;;;9.38;100.00
72157;BME280;60035;52.122;5.406;2023-02-19T00:53:37;101938.22;;;9.38;100.00
72157;BME280;60035;52.122;5.406;2023-02-19T00:56:04;101939.94;;;9.37;100.00
72157;BME280;60035;52.122;5.406;2023-02-19T00:58:31;101933.13;;;9.36;100.00
72157;BME280;60035;52.122;5.406;2023-02-19T01:00:58;101933.13;;;9.36;100.00
72157;BME280;60035;52.122;5.406;2023-02-19T01:03:25;101947.63;;;9.36;100.00
72157;BME280;60035;52.122;5.406;2023-02-19T01:05:51;101948.47;;;9.36;100.00
72157;BME280;60035;52.122;5.406;2023-02-19T01:08:18;101946.75;;;9.37;100.00
72157;BME280;60035;52.122;5.406;2023-02-19T01:10:45;101946.75;;;9.37;100.00
72157;BME280;60035;52.122;5.406;2023-02-19T01:13:12;101957.81;;;9.39;100.00
72157;BME280;60035;52.122;5.406;2023-02-19T01:15:39;101961.22;;;9.39;100.00
72157;BME280;60035;52.122;5.406;2023-02-19T01:18:06;101957.81;;;9.40;100.00
72157;BME280;60035;52.122;5.406;2023-02-19T01:20:32;101962.91;;;9.40;100.00
72157;BME280;60035;52.122;5.406;2023-02-19T01:22:59;101965.47;;;9.40;100.00
72157;BME280;60035;52.122;5.406;2023-02-19T01:25:25;101975.69;;;9.40;100.00
72157;BME280;60035;52.122;5.406;2023-02-19T01:27:51;101971.44;;;9.38;100.00
72157;BME280;60035;52.122;5.406;2023-02-19T01:30:18;101968.88;;;9.39;100.00
72157;BME280;60035;52.122;5.406;2023-02-19T01:32:44;101977.41;;;9.40;100.00
72157;BME280;60035;52.122;5.406;2023-02-19T01:35:11;101974.88;;;9.38;100.00
72157;BME280;60035;52.122;5.406;2023-02-19T01:37:37;101971.44;;;9.38;100.00
72157;BME280;60035;52.122;5.406;2023-02-19T01:40:04;101982.53;;;9.37;100.00
72157;BME280;60035;52.122;5.406;2023-02-19T01:42:31;101979.13;;;9.36;100.00
72157;BME280;60035;52.122;5.406;2023-02-19T01:45:20;101978.28;;;9.37;100.00
72157;BME280;60035;52.122;5.406;2023-02-19T01:50:24;101980.84;;;9.32;100.00
72157;BME280;60035;52.122;5.406;2023-02-19T01:52:53;101979.16;;;9.30;100.00
72157;BME280;60035;52.122;5.406;2023-02-19T01:55:21;101980.03;;;9.27;100.00
72157;BME280;60035;52.122;5.406;2023-02-19T01:57:50;101983.47;;;9.25;100.00
72157;BME280;60035;52.122;5.406;2023-02-19T02:00:18;101980.06;;;9.23;100.00
72157;BME280;60035;52.122;5.406;2023-02-19T02:02:49;101979.22;;;9.19;100.00
72157;BME280;60035;52.122;5.406;2023-02-19T02:07:54;101986.06;;;9.19;100.00
72157;BME280;60035;52.122;5.406;2023-02-19T02:10:39;101975.88;;;9.15;100.00
72157;BME280;60035;52.122;5.406;2023-02-19T02:13:05;101980.97;;;9.14;100.00
72157;BME280;60035;52.122;5.406;2023-02-19T02:15:50;101980.13;;;9.12;100.00
72157;BME280;60035;52.122;5.406;2023-02-19T02:18:33;101984.38;;;9.13;100.00
72157;BME280;60035;52.122;5.406;2023-02-19T02:24:11;101987.78;;;9.12;100.00
72157;BME280;60035;52.122;5.406;2023-02-19T02:26:54;101988.66;;;9.11;100.00
72157;BME280;60035;52.122;5.406;2023-02-19T02:32:26;101986.94;;;9.10;100.00
72157;BME280;60035;52.122;5.406;2023-02-19T02:35:04;101986.09;;;9.09;100.00
72157;BME280;60035;52.122;5.406;2023-02-19T02:37:34;101990.34;;;9.09;100.00
72157;BME280;60035;52.122;5.406;2023-02-19T02:40:03;101992.06;;;9.08;100.00
72157;BME280;60035;52.122;5.406;2023-02-19T02:42:33;101987.81;;;9.07;100.00
72157;BME280;60035;52.122;5.406;2023-02-19T02:45:24;101997.19;;;9.07;100.00
72157;BME280;60035;52.122;5.406;2023-02-19T02:53:50;102002.28;;;9.07;100.00
72157;BME280;60035;52.122;5.406;2023-02-19T02:56:33;102000.59;;;9.06;100.00
72157;BME280;60035;52.122;5.406;2023-02-19T02:59:01;102004.88;;;9.05;100.00
72157;BME280;60035;52.122;5.406;2023-02-19T03:01:36;102004.00;;;9.08;100.00
72157;BME280;60035;52.122;5.406;2023-02-19T03:04:32;102011.66;;;9.08;100.00
72157;BME280;60035;52.122;5.406;2023-02-19T03:07:04;102004.84;;;9.07;100.00
72157;BME280;60035;52.122;5.406;2023-02-19T03:09:39;102009.97;;;9.05;100.00
72157;BME280;60035;52.122;5.406;2023-02-19T03:12:16;102011.69;;;9.06;100.00
72157;BME280;60035;52.122;5.406;2023-02-19T03:15:07;102018.47;;;9.06;100.00
72157;BME280;60035;52.122;5.406;2023-02-19T03:18:00;102010.81;;;9.06;100.00
72157;BME280;60035;52.122;5.406;2023-02-19T03:20:50;102017.63;;;9.05;100.00
72157;BME280;60035;52.122;5.406;2023-02-19T03:23:19;102029.56;;;9.06;100.00
72157;BME280;60035;52.122;5.406;2023-02-19T03:26:08;102016.78;;;9.06;100.00
72157;BME280;60035;52.122;5.406;2023-02-19T03:28:37;102018.47;;;9.06;100.00
72157;BME280;60035;52.122;5.406;2023-02-19T03:31:26;102024.44;;;9.05;100.00
72157;BME280;60035;52.122;5.406;2023-02-19T03:33:58;102026.16;;;9.03;100.00
72157;BME280;60035;52.122;5.406;2023-02-19T03:36:36;102038.94;;;9.04;100.00
72157;BME280;60035;52.122;5.406;2023-02-19T03:39:07;102028.69;;;9.04;100.00
72157;BME280;60035;52.122;5.406;2023-02-19T03:47:04;102044.91;;;9.00;100.00
72157;BME280;60035;52.122;5.406;2023-02-19T03:49:41;102056.81;;;8.99;100.00
72157;BME280;60035;52.122;5.406;2023-02-19T03:52:17;102037.25;;;8.98;100.00
72157;BME280;60035;52.122;5.406;2023-02-19T03:55:07;102044.91;;;8.94;100.00
72157;BME280;60035;52.122;5.406;2023-02-19T03:58:03;102044.94;;;8.91;100.00
72157;BME280;60035;52.122;5.406;2023-02-19T04:00:54;102061.97;;;8.87;100.00
72157;BME280;60035;52.122;5.406;2023-02-19T04:03:36;102063.69;;;8.85;100.00
72157;BME280;60035;52.122;5.406;2023-02-19T04:06:13;102070.50;;;8.83;100.00
72157;BME280;60035;52.122;5.406;2023-02-19T04:08:44;102068.78;;;8.82;100.00
72157;BME280;60035;52.122;5.406;2023-02-19T04:11:13;102080.72;;;8.81;100.00
72157;BME280;60035;52.122;5.406;2023-02-19T04:13:55;102081.56;;;8.80;100.00
72157;BME280;60035;52.122;5.406;2023-02-19T04:16:27;102080.69;;;8.78;100.00
72157;BME280;60035;52.122;5.406;2023-02-19T04:19:00;102079.88;;;8.76;100.00
72157;BME280;60035;52.122;5.406;2023-02-19T04:21:29;102083.25;;;8.77;100.00
72157;BME280;60035;52.122;5.406;2023-02-19T04:23:59;102086.69;;;8.77;100.00
72157;BME280;60035;52.122;5.406;2023-02-19T04:26:28;102093.47;;;8.77;100.00
72157;BME280;60035;52.122;5.406;2023-02-19T04:28:56;102088.38;;;8.77;100.00
72157;BME280;60035;52.122;5.406;2023-02-19T04:31:23;102090.91;;;8.78;100.00
72157;BME280;60035;52.122;5.406;2023-02-19T04:33:52;102099.44;;;8.79;100.00
72157;BME280;60035;52.122;5.406;2023-02-19T04:36:18;102101.13;;;8.78;100.00
72157;BME280;60035;52.122;5.406;2023-02-19T04:38:44;102111.38;;;8.81;100.00
72157;BME280;60035;52.122;5.406;2023-02-19T04:41:11;102105.41;;;8.79;100.00
72157;BME280;60035;52.122;5.406;2023-02-19T04:43:38;102119.88;;;8.77;100.00
72157;BME280;60035;52.122;5.406;2023-02-19T04:46:04;102127.53;;;8.79;100.00
72157;BME280;60035;52.122;5.406;2023-02-19T04:48:31;102131.78;;;8.81;100.00
72157;BME280;60035;52.122;5.406;2023-02-19T04:50:57;102130.09;;;8.80;100.00
72157;BME280;60035;52.122;5.406;2023-02-19T04:53:24;102134.38;;;8.80;100.00
72157;BME280;60035;52.122;5.406;2023-02-19T04:55:50;102141.16;;;8.81;100.00
72157;BME280;60035;52.122;5.406;2023-02-19T04:58:19;102143.72;;;8.82;100.00
72157;BME280;60035;52.122;5.406;2023-02-19T05:00:45;102145.41;;;8.82;100.00
72157;BME280;60035;52.122;5.406;2023-02-19T05:03:12;102150.50;;;8.83;100.00
72157;BME280;60035;52.122;5.406;2023-02-19T05:05:38;102148.84;;;8.82;100.00
72157;BME280;60035;52.122;5.406;2023-02-19T05:08:05;102151.38;;;8.81;100.00
72157;BME280;60035;52.122;5.406;2023-02-19T05:10:31;102148.81;;;8.81;100.00
72157;BME280;60035;52.122;5.406;2023-02-19T05:12:58;102155.63;;;8.82;100.00
72157;BME280;60035;52.122;5.406;2023-02-19T05:15:25;102152.22;;;8.81;100.00
72157;BME280;60035;52.122;5.406;2023-02-19T05:17:51;102153.94;;;8.82;100.00
72157;BME280;60035;52.122;5.406;2023-02-19T05:20:18;102153.94;;;8.84;100.00
72157;BME280;60035;52.122;5.406;2023-02-19T05:22:44;102170.09;;;8.83;100.00
72157;BME280;60035;52.122;5.406;2023-02-19T05:25:11;102170.09;;;8.81;100.00
72157;BME280;60035;52.122;5.406;2023-02-19T05:27:37;102174.34;;;8.81;100.00
72157;BME280;60035;52.122;5.406;2023-02-19T05:30:04;102181.16;;;8.82;100.00
72157;BME280;60035;52.122;5.406;2023-02-19T05:32:30;102187.16;;;8.82;100.00
72157;BME280;60035;52.122;5.406;2023-02-19T05:34:57;102188.00;;;8.81;100.00
72157;BME280;60035;52.122;5.406;2023-02-19T05:37:23;102181.16;;;8.80;100.00
72157;BME280;60035;52.122;5.406;2023-02-19T05:39:50;102182.00;;;8.81;100.00
72157;BME280;60035;52.122;5.406;2023-02-19T05:42:16;102176.06;;;8.77;100.00
72157;BME280;60035;52.122;5.406;2023-02-19T05:44:43;102182.03;;;8.76;100.00
72157;BME280;60035;52.122;5.406;2023-02-19T05:47:09;102181.19;;;8.76;100.00
72157;BME280;60035;52.122;5.406;2023-02-19T05:49:36;102181.16;;;8.74;100.00
72157;BME280;60035;52.122;5.406;2023-02-19T05:52:03;102176.91;;;8.76;100.00
72157;BME280;60035;52.122;5.406;2023-02-19T05:54:30;102174.38;;;8.75;100.00
72157;BME280;60035;52.122;5.406;2023-02-19T05:56:56;102179.47;;;8.75;100.00
72157;BME280;60035;52.122;5.406;2023-02-19T05:59:26;102185.44;;;8.75;100.00
72157;BME280;60035;52.122;5.406;2023-02-19T06:01:53;102196.50;;;8.74;100.00
72157;BME280;60035;52.122;5.406;2023-02-19T06:04:20;102193.94;;;8.74;100.00
72157;BME280;60035;52.122;5.406;2023-02-19T06:06:47;102199.91;;;8.73;100.00
72157;BME280;60035;52.122;5.406;2023-02-19T06:09:13;102195.66;;;8.74;100.00
72157;BME280;60035;52.122;5.406;2023-02-19T06:11:40;102196.50;;;8.71;100.00
72157;BME280;60035;52.122;5.406;2023-02-19T06:14:11;102203.31;;;8.71;100.00
72157;BME280;60035;52.122;5.406;2023-02-19T06:16:38;102213.53;;;8.72;100.00
72157;BME280;60035;52.122;5.406;2023-02-19T06:19:04;102212.66;;;8.72;100.00
72157;BME280;60035;52.122;5.406;2023-02-19T06:21:31;102230.53;;;8.70;100.00
72157;BME280;60035;52.122;5.406;2023-02-19T06:23:57;102229.69;;;8.68;100.00
72157;BME280;60035;52.122;5.406;2023-02-19T06:26:24;102238.19;;;8.69;100.00
72157;BME280;60035;52.122;5.406;2023-02-19T06:28:51;102238.22;;;8.67;100.00
72157;BME280;60035;52.122;5.406;2023-02-19T06:31:19;102245.88;;;8.65;100.00
72157;BME280;60035;52.122;5.406;2023-02-19T06:33:46;102246.72;;;8.63;100.00
72157;BME280;60035;52.122;5.406;2023-02-19T06:36:15;102244.13;;;8.60;100.00
72157;BME280;60035;52.122;5.406;2023-02-19T06:38:42;102250.09;;;8.56;100.00
72157;BME280;60035;52.122;5.406;2023-02-19T06:41:09;102244.97;;;8.56;100.00
72157;BME280;60035;52.122;5.406;2023-02-19T06:43:37;102255.19;;;8.53;100.00
72157;BME280;60035;52.122;5.406;2023-02-19T06:46:04;102256.06;;;8.48;100.00
72157;BME280;60035;52.122;5.406;2023-02-19T06:48:32;102259.44;;;8.47;100.00
72157;BME280;60035;52.122;5.406;2023-02-19T06:50:59;102256.88;;;8.44;100.00
72157;BME280;60035;52.122;5.406;2023-02-19T06:53:25;102257.69;;;8.45;100.00
72157;BME280;60035;52.122;5.406;2023-02-19T06:55:56;102266.19;;;8.42;100.00
72157;BME280;60035;52.122;5.406;2023-02-19T06:58:23;102266.19;;;8.41;100.00
72157;BME280;60035;52.122;5.406;2023-02-19T07:00:50;102270.44;;;8.39;100.00
72157;BME280;60035;52.122;5.406;2023-02-19T07:03:17;102271.31;;;8.39;100.00
72157;BME280;60035;52.122;5.406;2023-02-19T07:05:43;102280.66;;;8.39;100.00
72157;BME280;60035;52.122;5.406;2023-02-19T07:08:10;102290.84;;;8.37;100.00
72157;BME280;60035;52.122;5.406;2023-02-19T07:10:36;102298.50;;;8.39;100.00
72157;BME280;60035;52.122;5.406;2023-02-19T07:13:03;102300.22;;;8.41;100.00
72157;BME280;60035;52.122;5.406;2023-02-19T07:15:30;102304.50;;;8.42;100.00
72157;BME280;60035;52.122;5.406;2023-02-19T07:17:56;102305.34;;;8.41;100.00
72157;BME280;60035;52.122;5.406;2023-02-19T07:20:24;102302.78;;;8.40;100.00
72157;BME280;60035;52.122;5.406;2023-02-19T07:22:50;102313.88;;;8.42;100.00
72157;BME280;60035;52.122;5.406;2023-02-19T07:25:17;102319.81;;;8.39;100.00
72157;BME280;60035;52.122;5.406;2023-02-19T07:27:43;102321.50;;;8.39;100.00
72157;BME280;60035;52.122;5.406;2023-02-19T07:30:09;102325.75;;;8.41;100.00
72157;BME280;60035;52.122;5.406;2023-02-19T07:32:40;102324.91;;;8.42;100.00
72157;BME280;60035;52.122;5.406;2023-02-19T07:35:07;102324.91;;;8.44;100.00
72157;BME280;60035;52.122;5.406;2023-02-19T07:37:33;102334.28;;;8.45;100.00
72157;BME280;60035;52.122;5.406;2023-02-19T07:40:00;102340.28;;;8.45;100.00
72157;BME280;60035;52.122;5.406;2023-02-19T07:42:26;102342.84;;;8.47;100.00
72157;BME280;60035;52.122;5.406;2023-02-19T07:44:53;102332.63;;;8.47;100.00
72157;BME280;60035;52.122;5.406;2023-02-19T07:47:19;102332.63;;;8.48;100.00
72157;BME280;60035;52.122;5.406;2023-02-19T07:49:46;102340.28;;;8.52;100.00
72157;BME280;60035;52.122;5.406;2023-02-19T07:52:12;102347.94;;;8.52;100.00
72157;BME280;60035;52.122;5.406;2023-02-19T07:54:39;102355.59;;;8.50;100.00
72157;BME280;60035;52.122;5.406;2023-02-19T07:57:05;102358.16;;;8.52;100.00
72157;BME280;60035;52.122;5.406;2023-02-19T07:59:33;102363.28;;;8.52;100.00
72157;BME280;60035;52.122;5.406;2023-02-19T08:01:59;102363.28;;;8.53;100.00
72157;BME280;60035;52.122;5.406;2023-02-19T08:04:46;102363.31;;;8.55;100.00
72157;BME280;60035;52.122;5.406;2023-02-19T08:07:12;102367.53;;;8.56;100.00
72157;BME280;60035;52.122;5.406;2023-02-19T08:09:39;102376.91;;;8.55;100.00
72157;BME280;60035;52.122;5.406;2023-02-19T08:12:07;102370.94;;;8.52;100.00
72157;BME280;60035;52.122;5.406;2023-02-19T08:14:54;102370.09;;;8.53;100.00
72157;BME280;60035;52.122;5.406;2023-02-19T08:17:21;102378.63;;;8.55;100.00
72157;BME280;60035;52.122;5.406;2023-02-19T08:19:47;102385.44;;;8.59;100.00
72157;BME280;60035;52.122;5.406;2023-02-19T08:22:14;102395.66;;;8.59;100.00
72157;BME280;60035;52.122;5.406;2023-02-19T08:24:41;102395.66;;;8.59;100.00
72157;BME280;60035;52.122;5.406;2023-02-19T08:27:10;102403.31;;;8.59;100.00
72157;BME280;60035;52.122;5.406;2023-02-19T08:29:36;102407.53;;;8.60;100.00
72157;BME280;60035;52.122;5.406;2023-02-19T08:32:03;102411.81;;;8.58;100.00
72157;BME280;60035;52.122;5.406;2023-02-19T08:34:29;102411.81;;;8.56;100.00
72157;BME280;60035;52.122;5.406;2023-02-19T08:36:56;102416.03;;;8.57;100.00
72157;BME280;60035;52.122;5.406;2023-02-19T08:39:22;102410.94;;;8.56;100.00
72157;BME280;60035;52.122;5.406;2023-02-19T08:41:49;102425.41;;;8.58;100.00
72157;BME280;60035;52.122;5.406;2023-02-19T08:44:15;102421.19;;;8.65;100.00
72157;BME280;60035;52.122;5.406;2023-02-19T08:46:42;102422.06;;;8.69;100.00
72157;BME280;60035;52.122;5.406;2023-02-19T08:49:08;102429.75;;;8.73;100.00
72157;BME280;60035;52.122;5.406;2023-02-19T08:51:35;102429.75;;;8.78;100.00
72157;BME280;60035;52.122;5.406;2023-02-19T08:54:02;102428.03;;;8.78;100.00
72157;BME280;60035;52.122;5.406;2023-02-19T08:56:29;102431.47;;;8.77;100.00
72157;BME280;60035;52.122;5.406;2023-02-19T08:58:56;102425.50;;;8.77;100.00
72157;BME280;60035;52.122;5.406;2023-02-19T09:01:22;102432.34;;;8.82;100.00
72157;BME280;60035;52.122;5.406;2023-02-19T09:03:49;102430.63;;;8.88;100.00
72157;BME280;60035;52.122;5.406;2023-02-19T09:06:17;102431.53;;;8.94;100.00
72157;BME280;60035;52.122;5.406;2023-02-19T09:08:44;102423.00;;;8.95;100.00
72157;BME280;60035;52.122;5.406;2023-02-19T09:11:11;102418.75;;;8.99;100.00
72157;BME280;60035;52.122;5.406;2023-02-19T09:13:38;102436.66;;;9.05;100.00
72157;BME280;60035;52.122;5.406;2023-02-19T09:16:04;102432.44;;;9.10;100.00
72157;BME280;60035;52.122;5.406;2023-02-19T09:18:31;102447.78;;;9.20;100.00
72157;BME280;60035;52.122;5.406;2023-02-19T09:21:05;102457.97;;;9.18;100.00
72157;BME280;60035;52.122;5.406;2023-02-19T09:23:33;102439.25;;;9.14;100.00
72157;BME280;60035;52.122;5.406;2023-02-19T09:26:01;102453.72;;;9.14;100.00
72157;BME280;60035;52.122;5.406;2023-02-19T09:28:32;102463.94;;;9.12;100.00
72157;BME280;60035;52.122;5.406;2023-02-19T09:31:06;102462.25;;;9.14;100.00
72157;BME280;60035;52.122;5.406;2023-02-19T09:33:33;102472.47;;;9.13;100.00
72157;BME280;60035;52.122;5.406;2023-02-19T09:36:00;102492.03;;;9.12;100.00
72157;BME280;60035;52.122;5.406;2023-02-19T09:38:26;102491.16;;;9.09;100.00
72157;BME280;60035;52.122;5.406;2023-02-19T09:40:56;102499.72;;;9.09;100.00
72157;BME280;60035;52.122;5.406;2023-02-19T09:43:25;102503.09;;;9.05;100.00
72157;BME280;60035;52.122;5.406;2023-02-19T09:46:01;102507.34;;;9.02;100.00
72157;BME280;60035;52.122;5.406;2023-02-19T09:48:28;102519.28;;;9.01;100.00
72157;BME280;60035;52.122;5.406;2023-02-19T09:50:56;102515.84;;;8.96;100.00
72157;BME280;60035;52.122;5.406;2023-02-19T09:53:27;102523.50;;;8.94;100.00
72157;BME280;60035;52.122;5.406;2023-02-19T09:55:55;102537.13;;;8.92;100.00
72157;BME280;60035;52.122;5.406;2023-02-19T09:58:31;102539.69;;;8.92;100.00
72157;BME280;60035;52.122;5.406;2023-02-19T10:01:00;102538.84;;;8.94;100.00
72157;BME280;60035;52.122;5.406;2023-02-19T10:03:29;102537.13;;;8.95;100.00
72157;BME280;60035;52.122;5.406;2023-02-19T10:06:03;102546.50;;;8.97;100.00
72157;BME280;60035;52.122;5.406;2023-02-19T10:08:32;102549.91;;;8.95;100.00
72157;BME280;60035;52.122;5.406;2023-02-19T10:11:00;102565.22;;;8.95;100.00
72157;BME280;60035;52.122;5.406;2023-02-19T10:13:32;102573.72;;;8.91;100.00
72157;BME280;60035;52.122;5.406;2023-02-19T10:16:01;102572.00;;;8.85;100.00
72157;BME280;60035;52.122;5.406;2023-02-19T10:18:36;102577.91;;;8.76;100.00
72157;BME280;60035;52.122;5.406;2023-02-19T10:21:04;102586.38;;;8.72;100.00
72157;BME280;60035;52.122;5.406;2023-02-19T10:23:30;102595.72;;;8.65;100.00
72157;BME280;60035;52.122;5.406;2023-02-19T10:25:58;102590.59;;;8.65;100.00
72157;BME280;60035;52.122;5.406;2023-02-19T10:28:30;102601.66;;;8.67;100.00
72157;BME280;60035;52.122;5.406;2023-02-19T10:31:01;102597.38;;;8.63;100.00
72157;BME280;60035;52.122;5.406;2023-02-19T10:33:31;102605.88;;;8.62;100.00
72157;BME280;60035;52.122;5.406;2023-02-19T10:36:05;102611.81;;;8.60;100.00
72157;BME280;60035;52.122;5.406;2023-02-19T10:38:38;102616.91;;;8.58;100.00
72157;BME280;60035;52.122;5.406;2023-02-19T10:41:11;102617.75;;;8.54;100.00
72157;BME280;60035;52.122;5.406;2023-02-19T10:43:42;102613.50;;;8.56;100.00
72157;BME280;60035;52.122;5.406;2023-02-19T10:46:25;102611.88;;;8.63;100.00
72157;BME280;60035;52.122;5.406;2023-02-19T10:49:00;102622.09;;;8.66;100.00
72157;BME280;60035;52.122;5.406;2023-02-19T10:51:34;102616.97;;;8.63;100.00
72157;BME280;60035;52.122;5.406;2023-02-19T10:56:29;102620.34;;;8.62;100.00
72157;BME280;60035;52.122;5.406;2023-02-19T11:01:52;102613.53;;;8.62;100.00
72157;BME280;60035;52.122;5.406;2023-02-19T11:04:20;102601.66;;;8.63;100.00
72157;BME280;60035;52.122;5.406;2023-02-19T11:06:47;102596.56;;;8.67;100.00
72157;BME280;60035;52.122;5.406;2023-02-19T11:09:30;102594.88;;;8.68;100.00
72157;BME280;60035;52.122;5.406;2023-02-19T11:12:00;102606.81;;;8.72;100.00
72157;BME280;60035;52.122;5.406;2023-02-19T11:14:28;102602.56;;;8.73;100.00
72157;BME280;60035;52.122;5.406;2023-02-19T11:16:57;102607.72;;;8.77;100.00
72157;BME280;60035;52.122;5.406;2023-02-19T11:21:58;102622.16;;;8.72;100.00
72157;BME280;60035;52.122;5.406;2023-02-19T11:24:35;102627.25;;;8.72;100.00
72157;BME280;60035;52.122;5.406;2023-02-19T11:27:06;102627.25;;;8.72;100.00
72157;BME280;60035;52.122;5.406;2023-02-19T11:29:42;102628.09;;;8.74;100.00
72157;BME280;60035;52.122;5.406;2023-02-19T11:32:26;102626.41;;;8.75;100.00
72157;BME280;60035;52.122;5.406;2023-02-19T11:37:57;102624.78;;;8.88;100.00
72157;BME280;60035;52.122;5.406;2023-02-19T11:40:43;102628.22;;;8.93;100.00
72157;BME280;60035;52.122;5.406;2023-02-19T11:43:27;102635.09;;;8.98;100.00
72157;BME280;60035;52.122;5.406;2023-02-19T11:48:59;102640.16;;;8.89;100.00
72157;BME280;60035;52.122;5.406;2023-02-19T11:56:43;102623.88;;;8.79;100.00
72157;BME280;60035;52.122;5.406;2023-02-19T12:05:22;102629.81;;;8.77;100.00
72157;BME280;60035;52.122;5.406;2023-02-19T12:19:14;102640.00;;;8.71;100.00
72157;BME280;60035;52.122;5.406;2023-02-19T12:21:57;102649.22;;;8.52;100.00
72157;BME280;60035;52.122;5.406;2023-02-19T12:43:18;102665.69;;;7.98;100.00
72157;BME280;60035;52.122;5.406;2023-02-19T12:48:29;102666.50;;;7.96;100.00
72157;BME280;60035;52.122;5.406;2023-02-19T12:51:04;102677.53;;;7.95;100.00
72157;BME280;60035;52.122;5.406;2023-02-19T12:53:41;102679.19;;;7.88;100.00
72157;BME280;60035;52.122;5.406;2023-02-19T12:56:11;102686.78;;;7.82;100.00
72157;BME280;60035;52.122;5.406;2023-02-19T12:58:45;102686.78;;;7.83;100.00
72157;BME280;60035;52.122;5.406;2023-02-19T13:01:18;102700.38;;;7.82;100.00
72157;BME280;60035;52.122;5.406;2023-02-19T13:03:52;102709.69;;;7.80;100.00
72157;BME280;60035;52.122;5.406;2023-02-19T13:06:35;102705.47;;;7.81;100.00
72157;BME280;60035;52.122;5.406;2023-02-19T13:09:12;102694.44;;;7.85;100.00
72157;BME280;60035;52.122;5.406;2023-02-19T13:12:04;102703.72;;;7.78;100.00
72157;BME280;60035;52.122;5.406;2023-02-19T13:14:36;102715.66;;;7.81;100.00
72157;BME280;60035;52.122;5.406;2023-02-19T13:17:17;102717.41;;;7.83;100.00
72157;BME280;60035;52.122;5.406;2023-02-19T13:19:47;102725.88;;;7.82;100.00
72157;BME280;60035;52.122;5.406;2023-02-19T13:22:28;102731.81;;;7.83;100.00
72157;BME280;60035;52.122;5.406;2023-02-19T13:25:16;102725.88;;;7.84;100.00
72157;BME280;60035;52.122;5.406;2023-02-19T13:28:23;102738.66;;;7.86;100.00
72157;BME280;60035;52.122;5.406;2023-02-19T13:34:27;102736.66;;;7.63;100.00
72157;BME280;60035;52.122;5.406;2023-02-19T13:36:59;102734.91;;;7.57;100.00
72157;BME280;60035;52.122;5.406;2023-02-19T13:39:26;102745.94;;;7.56;100.00
72157;BME280;60035;52.122;5.406;2023-02-19T13:41:57;102744.28;;;7.58;100.00
72157;BME280;60035;52.122;5.406;2023-02-19T13:44:28;102745.94;;;7.58;100.00
72157;BME280;60035;52.122;5.406;2023-02-19T13:46:56;102749.38;;;7.60;100.00
72157;BME280;60035;52.122;5.406;2023-02-19T13:51:54;102757.94;;;7.63;100.00
72157;BME280;60035;52.122;5.406;2023-02-19T13:59:45;102758.91;;;7.73;100.00
72157;BME280;60035;52.122;5.406;2023-02-19T14:02:32;102758.09;;;7.76;100.00
72157;BME280;60035;52.122;5.406;2023-02-19T14:05:10;102762.38;;;7.78;100.00
72157;BME280;60035;52.122;5.406;2023-02-19T14:07:51;102764.16;;;7.86;100.00
72157;BME280;60035;52.122;5.406;2023-02-19T14:26:00;102754.97;;;7.97;100.00
72157;BME280;60035;52.122;5.406;2023-02-19T14:28:33;102759.34;;;8.06;100.00
72157;BME280;60035;52.122;5.406;2023-02-19T14:31:29;102752.53;;;8.09;100.00
72157;BME280;60035;52.122;5.406;2023-02-19T14:34:02;102751.69;;;8.09;100.00
72157;BME280;60035;52.122;5.406;2023-02-19T14:39:11;102744.06;;;8.10;100.00
72157;BME280;60035;52.122;5.406;2023-02-19T14:41:41;102729.69;;;8.17;100.00
72157;BME280;60035;52.122;5.406;2023-02-19T14:44:15;102729.75;;;8.23;100.00
72157;BME280;60035;52.122;5.406;2023-02-19T14:49:20;102720.31;;;8.17;100.00
72157;BME280;60035;52.122;5.406;2023-02-19T14:51:53;102716.06;;;8.16;100.00
72157;BME280;60035;52.122;5.406;2023-02-19T14:54:39;102721.09;;;8.12;100.00
72157;BME280;60035;52.122;5.406;2023-02-19T14:57:16;102721.16;;;8.15;100.00
72157;BME280;60035;52.122;5.406;2023-02-19T14:59:57;102714.34;;;8.12;100.00
72157;BME280;60035;52.122;5.406;2023-02-19T15:02:24;102700.75;;;8.16;100.00
72157;BME280;60035;52.122;5.406;2023-02-19T15:04:52;102700.00;;;8.27;100.00
72157;BME280;60035;52.122;5.406;2023-02-19T15:07:22;102705.16;;;8.33;99.93